createdAt,value
2018-02-02T00:00:05.876Z,963.87
2018-02-02T00:01:05.653Z,963.74
2018-02-02T00:02:05.304Z,963.82
2018-02-02T00:03:05.402Z,963.76
2018-02-02T00:04:05.322Z,963.71
2018-02-02T00:05:05.228Z,963.68
2018-02-02T00:06:05.798Z,963.62
2018-02-02T00:07:05.407Z,963.88
2018-02-02T00:08:04.943Z,963.71
2018-02-02T00:09:05.603Z,963.68
2018-02-02T00:10:05.823Z,963.90
2018-02-02T00:11:05.495Z,963.71
2018-02-02T00:12:04.935Z,963.82
2018-02-02T00:13:05.027Z,963.82
2018-02-02T00:14:05.278Z,963.77
2018-02-02T00:15:05.778Z,963.85
2018-02-02T00:16:05.052Z,963.80
2018-02-02T00:17:05.415Z,963.69
2018-02-02T00:18:05.147Z,963.83
2018-02-02T00:19:05.528Z,963.77
2018-02-02T00:20:05.471Z,963.75
2018-02-02T00:21:05.350Z,963.78
2018-02-02T00:22:05.132Z,963.75
2018-02-02T00:23:05.138Z,963.69
2018-02-02T00:24:05.547Z,963.93
2018-02-02T00:25:05.180Z,963.86
2018-02-02T00:26:05.868Z,964.05
2018-02-02T00:27:05.572Z,963.96
2018-02-02T00:28:05.329Z,963.81
2018-02-02T00:29:05.444Z,963.83
2018-02-02T00:30:05.369Z,963.94
2018-02-02T00:31:05.154Z,963.97
2018-02-02T00:32:05.094Z,963.91
2018-02-02T00:33:06.714Z,963.75
2018-02-02T00:34:05.700Z,963.99
2018-02-02T00:35:05.384Z,963.81
2018-02-02T00:36:05.177Z,963.87
2018-02-02T00:37:05.882Z,963.91
2018-02-02T00:38:05.587Z,963.97
2018-02-02T00:39:05.541Z,963.94
2018-02-02T00:40:05.463Z,963.89
2018-02-02T00:41:05.694Z,963.84
2018-02-02T00:42:05.368Z,963.84
2018-02-02T00:43:04.958Z,963.91
2018-02-02T00:44:05.830Z,963.84
2018-02-02T00:45:05.582Z,963.87
2018-02-02T00:46:05.190Z,963.81
2018-02-02T00:47:05.916Z,963.70
2018-02-02T00:48:05.402Z,963.87
2018-02-02T00:49:05.746Z,963.81
2018-02-02T00:50:05.287Z,963.84
2018-02-02T00:51:06.006Z,963.81
2018-02-02T00:52:05.405Z,963.84
2018-02-02T00:53:05.060Z,963.87
2018-02-02T00:54:05.856Z,963.79
2018-02-02T00:55:05.446Z,963.94
2018-02-02T00:56:05.818Z,963.81
2018-02-02T00:57:05.422Z,963.91
2018-02-02T00:58:05.730Z,963.81
2018-02-02T00:59:05.250Z,963.97
2018-02-02T01:00:05.782Z,963.89
2018-02-02T01:01:05.319Z,963.76
2018-02-02T01:02:06.281Z,963.91
2018-02-02T01:03:05.030Z,963.70
2018-02-02T01:04:05.610Z,963.84
2018-02-02T01:05:05.643Z,963.79
2018-02-02T01:06:05.365Z,963.87
2018-02-02T01:07:05.237Z,963.94
2018-02-02T01:08:05.705Z,963.82
2018-02-02T01:09:05.423Z,963.89
2018-02-02T01:10:05.224Z,963.95
2018-02-02T01:11:05.191Z,964.03
2018-02-02T01:12:05.022Z,963.88
2018-02-02T01:13:05.707Z,963.92
2018-02-02T01:14:05.460Z,963.92
2018-02-02T01:15:05.988Z,963.88
2018-02-02T01:16:05.339Z,964.04
2018-02-02T01:17:05.036Z,963.85
2018-02-02T01:18:05.493Z,963.88
2018-02-02T01:19:05.227Z,963.90
2018-02-02T01:20:05.706Z,963.86
2018-02-02T01:21:05.269Z,963.99
2018-02-02T01:22:04.997Z,963.90
2018-02-02T01:23:05.668Z,963.93
2018-02-02T01:24:10.076Z,963.93
2018-02-02T01:25:05.045Z,964.02
2018-02-02T01:26:05.167Z,963.99
2018-02-02T01:27:05.639Z,963.75
2018-02-02T01:28:05.611Z,963.81
2018-02-02T01:29:04.925Z,963.91
2018-02-02T01:30:05.815Z,963.86
2018-02-02T01:31:05.519Z,963.89
2018-02-02T01:32:05.584Z,963.89
2018-02-02T01:33:05.958Z,963.86
2018-02-02T01:34:05.169Z,963.97
2018-02-02T01:35:05.505Z,963.97
2018-02-02T01:36:05.131Z,964.05
2018-02-02T01:37:10.998Z,963.94
2018-02-02T01:38:05.348Z,963.84
2018-02-02T01:39:05.178Z,963.89
2018-02-02T01:40:05.589Z,963.91
2018-02-02T01:41:05.897Z,963.89
2018-02-02T01:42:05.826Z,963.81
2018-02-02T01:43:05.231Z,963.87
2018-02-02T01:44:05.896Z,964.00
2018-02-02T01:45:05.701Z,963.92
2018-02-02T01:46:05.542Z,964.06
2018-02-02T01:47:05.256Z,964.03
2018-02-02T01:48:05.487Z,963.92
2018-02-02T01:49:05.086Z,964.11
2018-02-02T01:50:05.875Z,964.00
2018-02-02T01:51:06.006Z,964.00
2018-02-02T01:52:05.983Z,963.97
2018-02-02T01:53:05.699Z,963.94
2018-02-02T01:54:05.310Z,964.03
2018-02-02T01:55:05.612Z,964.14
2018-02-02T01:56:05.249Z,963.97
2018-02-02T01:57:05.761Z,964.11
2018-02-02T01:58:05.921Z,963.87
2018-02-02T01:59:05.503Z,963.97
2018-02-02T02:00:05.624Z,963.97
2018-02-02T02:01:05.742Z,963.92
2018-02-02T02:02:05.227Z,963.92
2018-02-02T02:03:05.061Z,964.09
2018-02-02T02:04:05.213Z,964.11
2018-02-02T02:05:05.619Z,964.06
2018-02-02T02:06:05.495Z,964.00
2018-02-02T02:07:05.545Z,964.03
2018-02-02T02:08:05.200Z,964.03
2018-02-02T02:09:05.287Z,964.03
2018-02-02T02:10:05.602Z,963.90
2018-02-02T02:11:05.128Z,963.95
2018-02-02T02:12:05.119Z,963.95
2018-02-02T02:13:05.747Z,964.01
2018-02-02T02:14:05.871Z,963.98
2018-02-02T02:15:05.452Z,964.01
2018-02-02T02:16:10.150Z,964.07
2018-02-02T02:17:05.395Z,964.12
2018-02-02T02:18:05.720Z,964.12
2018-02-02T02:19:05.762Z,964.15
2018-02-02T02:20:05.917Z,964.21
2018-02-02T02:21:05.438Z,964.10
2018-02-02T02:22:10.079Z,964.10
2018-02-02T02:23:05.118Z,964.10
2018-02-02T02:24:05.511Z,964.24
2018-02-02T02:25:05.336Z,964.18
2018-02-02T02:26:05.753Z,964.21
2018-02-02T02:27:05.583Z,964.02
2018-02-02T02:28:05.366Z,964.05
2018-02-02T02:29:05.886Z,964.13
2018-02-02T02:30:05.772Z,964.19
2018-02-02T02:31:05.283Z,964.13
2018-02-02T02:32:05.662Z,964.13
2018-02-02T02:33:05.324Z,964.22
2018-02-02T02:34:05.382Z,964.22
2018-02-02T02:35:05.590Z,964.16
2018-02-02T02:36:05.829Z,964.25
2018-02-02T02:37:05.800Z,964.19
2018-02-02T02:38:05.371Z,964.19
2018-02-02T02:39:05.908Z,964.16
2018-02-02T02:40:05.291Z,964.14
2018-02-02T02:41:06.082Z,964.08
2018-02-02T02:42:05.277Z,963.94
2018-02-02T02:43:05.467Z,964.22
2018-02-02T02:44:10.448Z,964.02
2018-02-02T02:45:05.736Z,964.08
2018-02-02T02:46:05.075Z,964.13
2018-02-02T02:47:05.742Z,963.99
2018-02-02T02:48:05.445Z,964.13
2018-02-02T02:49:05.495Z,964.08
2018-02-02T02:50:05.104Z,964.19
2018-02-02T02:51:11.201Z,963.99
2018-02-02T02:52:05.601Z,964.02
2018-02-02T02:53:05.922Z,963.96
2018-02-02T02:54:10.460Z,963.96
2018-02-02T02:55:05.676Z,964.13
2018-02-02T02:56:05.418Z,963.96
2018-02-02T02:57:05.024Z,963.93
2018-02-02T02:58:05.424Z,964.10
2018-02-02T02:59:05.373Z,964.10
2018-02-02T03:00:05.304Z,964.04
2018-02-02T03:01:04.990Z,964.02
2018-02-02T03:02:05.530Z,964.04
2018-02-02T03:03:05.803Z,964.02
2018-02-02T03:04:05.467Z,964.16
2018-02-02T03:05:05.239Z,964.05
2018-02-02T03:06:05.125Z,964.02
2018-02-02T03:07:05.913Z,963.99
2018-02-02T03:08:05.618Z,964.02
2018-02-02T03:09:05.276Z,964.10
2018-02-02T03:10:06.153Z,963.94
2018-02-02T03:11:10.408Z,964.13
2018-02-02T03:12:05.622Z,964.02
2018-02-02T03:13:05.143Z,964.00
2018-02-02T03:14:05.661Z,963.87
2018-02-02T03:15:05.295Z,964.02
2018-02-02T03:16:05.527Z,963.87
2018-02-02T03:17:05.478Z,963.84
2018-02-02T03:18:05.629Z,963.87
2018-02-02T03:19:05.569Z,963.84
2018-02-02T03:20:06.150Z,963.97
2018-02-02T03:21:05.485Z,964.00
2018-02-02T03:22:10.564Z,963.94
2018-02-02T03:23:05.094Z,964.00
2018-02-02T03:24:05.811Z,963.97
2018-02-02T03:25:05.995Z,964.08
2018-02-02T03:26:05.982Z,964.00
2018-02-02T03:27:05.117Z,963.94
2018-02-02T03:28:05.913Z,963.91
2018-02-02T03:29:05.333Z,964.05
2018-02-02T03:30:05.921Z,964.03
2018-02-02T03:31:05.560Z,963.92
2018-02-02T03:32:05.052Z,964.05
2018-02-02T03:33:05.743Z,963.89
2018-02-02T03:34:05.570Z,963.79
2018-02-02T03:35:05.196Z,963.81
2018-02-02T03:36:05.161Z,963.84
2018-02-02T03:37:05.265Z,963.89
2018-02-02T03:38:05.823Z,963.73
2018-02-02T03:39:05.413Z,963.79
2018-02-02T03:40:05.507Z,963.84
2018-02-02T03:41:04.875Z,963.89
2018-02-02T03:42:05.406Z,963.73
2018-02-02T03:43:05.016Z,963.76
2018-02-02T03:44:05.942Z,963.73
2018-02-02T03:45:05.575Z,963.87
2018-02-02T03:46:05.982Z,963.81
2018-02-02T03:47:05.257Z,963.94
2018-02-02T03:48:05.419Z,963.87
2018-02-02T03:49:05.304Z,963.78
2018-02-02T03:50:06.885Z,963.97
2018-02-02T03:51:05.805Z,963.89
2018-02-02T03:52:05.484Z,963.89
2018-02-02T03:53:05.954Z,964.08
2018-02-02T03:54:05.849Z,964.11
2018-02-02T03:55:05.257Z,964.05
2018-02-02T03:56:05.067Z,964.02
2018-02-02T03:57:05.450Z,963.91
2018-02-02T03:58:05.884Z,964.19
2018-02-02T03:59:05.790Z,964.16
2018-02-02T04:00:05.742Z,964.02
2018-02-02T04:01:05.814Z,963.91
2018-02-02T04:02:05.492Z,964.13
2018-02-02T04:03:05.924Z,964.02
2018-02-02T04:04:05.420Z,963.87
2018-02-02T04:05:05.041Z,964.05
2018-02-02T04:06:05.829Z,964.11
2018-02-02T04:07:05.594Z,964.16
2018-02-02T04:08:06.231Z,963.89
2018-02-02T04:09:05.664Z,964.05
2018-02-02T04:10:05.812Z,964.17
2018-02-02T04:11:06.080Z,963.97
2018-02-02T04:12:05.410Z,964.22
2018-02-02T04:13:05.520Z,964.08
2018-02-02T04:14:05.338Z,964.36
2018-02-02T04:15:05.318Z,964.34
2018-02-02T04:16:05.442Z,964.48
2018-02-02T04:17:05.442Z,964.25
2018-02-02T04:18:05.134Z,964.17
2018-02-02T04:19:05.849Z,964.23
2018-02-02T04:20:05.694Z,964.23
2018-02-02T04:21:06.079Z,964.12
2018-02-02T04:22:05.209Z,964.21
2018-02-02T04:23:05.049Z,964.07
2018-02-02T04:24:05.161Z,964.15
2018-02-02T04:25:10.417Z,964.26
2018-02-02T04:26:05.114Z,964.15
2018-02-02T04:27:05.487Z,964.12
2018-02-02T04:28:05.151Z,964.10
2018-02-02T04:29:05.429Z,964.07
2018-02-02T04:30:05.181Z,964.15
2018-02-02T04:31:05.181Z,964.24
2018-02-02T04:32:05.028Z,964.13
2018-02-02T04:33:05.921Z,964.21
2018-02-02T04:34:05.484Z,964.18
2018-02-02T04:35:05.305Z,964.13
2018-02-02T04:36:05.125Z,964.15
2018-02-02T04:37:05.744Z,964.30
2018-02-02T04:38:05.949Z,964.10
2018-02-02T04:39:06.053Z,964.24
2018-02-02T04:40:05.849Z,964.19
2018-02-02T04:41:05.606Z,964.24
2018-02-02T04:42:05.566Z,964.13
2018-02-02T04:43:05.070Z,964.19
2018-02-02T04:44:05.281Z,964.24
2018-02-02T04:45:06.006Z,964.13
2018-02-02T04:46:05.307Z,964.24
2018-02-02T04:47:05.503Z,964.19
2018-02-02T04:48:05.062Z,964.05
2018-02-02T04:49:05.560Z,964.05
2018-02-02T04:50:05.086Z,964.05
2018-02-02T04:51:05.200Z,964.22
2018-02-02T04:52:05.391Z,963.91
2018-02-02T04:53:04.972Z,964.05
2018-02-02T04:54:05.774Z,964.05
2018-02-02T04:55:05.796Z,963.97
2018-02-02T04:56:05.864Z,963.94
2018-02-02T04:57:05.994Z,964.03
2018-02-02T04:58:05.114Z,963.81
2018-02-02T04:59:05.604Z,963.84
2018-02-02T05:00:05.820Z,963.89
2018-02-02T05:01:05.892Z,963.89
2018-02-02T05:02:05.450Z,963.91
2018-02-02T05:03:05.807Z,963.81
2018-02-02T05:04:05.954Z,963.94
2018-02-02T05:05:10.738Z,963.84
2018-02-02T05:06:05.560Z,963.86
2018-02-02T05:07:05.541Z,963.90
2018-02-02T05:08:05.229Z,963.96
2018-02-02T05:09:05.481Z,963.96
2018-02-02T05:10:05.159Z,963.93
2018-02-02T05:11:05.587Z,963.93
2018-02-02T05:12:05.106Z,963.77
2018-02-02T05:13:05.790Z,963.83
2018-02-02T05:14:05.212Z,963.90
2018-02-02T05:15:05.828Z,963.77
2018-02-02T05:16:05.319Z,963.86
2018-02-02T05:17:05.549Z,964.01
2018-02-02T05:18:05.310Z,964.01
2018-02-02T05:19:05.359Z,963.88
2018-02-02T05:20:05.252Z,963.93
2018-02-02T05:21:05.072Z,963.95
2018-02-02T05:22:05.054Z,963.93
2018-02-02T05:23:05.698Z,963.93
2018-02-02T05:24:05.378Z,964.07
2018-02-02T05:25:05.510Z,964.07
2018-02-02T05:26:05.749Z,963.88
2018-02-02T05:27:05.439Z,963.98
2018-02-02T05:28:10.228Z,963.90
2018-02-02T05:29:05.648Z,963.90
2018-02-02T05:30:05.528Z,963.95
2018-02-02T05:31:05.139Z,963.95
2018-02-02T05:32:05.401Z,964.06
2018-02-02T05:33:05.781Z,964.01
2018-02-02T05:34:05.825Z,964.07
2018-02-02T05:35:05.921Z,964.04
2018-02-02T05:36:05.517Z,964.01
2018-02-02T05:37:05.256Z,963.95
2018-02-02T05:38:05.761Z,963.98
2018-02-02T05:39:05.840Z,964.01
2018-02-02T05:40:05.369Z,964.01
2018-02-02T05:41:05.085Z,963.90
2018-02-02T05:42:05.588Z,964.01
2018-02-02T05:43:05.748Z,963.88
2018-02-02T05:44:05.343Z,964.04
2018-02-02T05:45:05.685Z,963.88
2018-02-02T05:46:05.218Z,964.01
2018-02-02T05:47:05.712Z,964.09
2018-02-02T05:48:04.972Z,964.09
2018-02-02T05:49:05.924Z,964.01
2018-02-02T05:50:05.109Z,963.95
2018-02-02T05:51:05.740Z,964.01
2018-02-02T05:52:05.375Z,963.95
2018-02-02T05:53:05.293Z,964.12
2018-02-02T05:54:05.203Z,964.12
2018-02-02T05:55:05.574Z,964.12
2018-02-02T05:56:05.706Z,964.09
2018-02-02T05:57:05.864Z,963.98
2018-02-02T05:58:05.593Z,963.98
2018-02-02T05:59:05.533Z,964.22
2018-02-02T06:00:05.876Z,964.03
2018-02-02T06:01:05.536Z,964.06
2018-02-02T06:02:05.635Z,964.22
2018-02-02T06:03:05.184Z,964.14
2018-02-02T06:04:05.858Z,964.22
2018-02-02T06:05:05.434Z,964.00
2018-02-02T06:06:05.179Z,963.97
2018-02-02T06:07:05.204Z,964.02
2018-02-02T06:08:04.986Z,964.02
2018-02-02T06:09:05.157Z,964.13
2018-02-02T06:10:05.811Z,964.02
2018-02-02T06:11:05.725Z,964.08
2018-02-02T06:12:05.636Z,963.99
2018-02-02T06:13:05.420Z,964.02
2018-02-02T06:14:05.254Z,964.10
2018-02-02T06:15:05.844Z,964.05
2018-02-02T06:16:05.689Z,963.96
2018-02-02T06:17:05.123Z,964.07
2018-02-02T06:18:05.025Z,964.10
2018-02-02T06:19:05.607Z,964.02
2018-02-02T06:20:05.932Z,964.02
2018-02-02T06:21:05.310Z,964.07
2018-02-02T06:22:05.986Z,964.07
2018-02-02T06:23:05.351Z,964.07
2018-02-02T06:24:05.424Z,963.99
2018-02-02T06:25:05.263Z,964.13
2018-02-02T06:26:05.935Z,964.24
2018-02-02T06:27:05.378Z,964.16
2018-02-02T06:28:05.760Z,964.01
2018-02-02T06:29:05.037Z,964.02
2018-02-02T06:30:05.808Z,964.02
2018-02-02T06:31:05.319Z,964.21
2018-02-02T06:32:10.217Z,964.02
2018-02-02T06:33:06.292Z,964.15
2018-02-02T06:34:05.050Z,964.12
2018-02-02T06:35:05.653Z,964.18
2018-02-02T06:36:05.890Z,964.04
2018-02-02T06:37:05.978Z,964.18
2018-02-02T06:38:05.980Z,964.18
2018-02-02T06:39:05.837Z,964.15
2018-02-02T06:40:05.206Z,964.23
2018-02-02T06:41:05.214Z,964.12
2018-02-02T06:42:05.887Z,964.23
2018-02-02T06:43:05.390Z,964.18
2018-02-02T06:44:10.509Z,964.18
2018-02-02T06:45:05.485Z,963.98
2018-02-02T06:46:05.970Z,964.20
2018-02-02T06:47:06.058Z,964.18
2018-02-02T06:48:05.101Z,964.15
2018-02-02T06:49:05.659Z,964.26
2018-02-02T06:50:05.542Z,964.15
2018-02-02T06:51:05.613Z,964.18
2018-02-02T06:52:05.543Z,964.09
2018-02-02T06:53:05.624Z,964.12
2018-02-02T06:54:05.915Z,964.15
2018-02-02T06:55:05.932Z,964.37
2018-02-02T06:56:05.960Z,964.31
2018-02-02T06:57:05.995Z,964.34
2018-02-02T06:58:05.707Z,964.31
2018-02-02T06:59:05.623Z,964.17
2018-02-02T07:00:05.433Z,964.31
2018-02-02T07:01:05.263Z,964.25
2018-02-02T07:02:05.860Z,964.23
2018-02-02T07:03:05.493Z,964.31
2018-02-02T07:04:05.272Z,964.20
2018-02-02T07:05:05.938Z,964.28
2018-02-02T07:06:05.484Z,964.30
2018-02-02T07:07:05.379Z,964.30
2018-02-02T07:08:06.134Z,964.44
2018-02-02T07:09:05.321Z,964.33
2018-02-02T07:10:05.968Z,964.44
2018-02-02T07:11:05.871Z,964.47
2018-02-02T07:12:05.539Z,964.38
2018-02-02T07:13:05.673Z,964.30
2018-02-02T07:14:04.939Z,964.38
2018-02-02T07:15:06.019Z,964.30
2018-02-02T07:16:06.095Z,964.44
2018-02-02T07:17:05.758Z,964.32
2018-02-02T07:18:05.458Z,964.49
2018-02-02T07:19:05.423Z,964.38
2018-02-02T07:20:05.412Z,964.55
2018-02-02T07:21:05.061Z,964.35
2018-02-02T07:22:10.654Z,964.49
2018-02-02T07:23:05.782Z,964.38
2018-02-02T07:24:10.834Z,964.43
2018-02-02T07:25:05.956Z,964.43
2018-02-02T07:26:05.498Z,964.37
2018-02-02T07:27:05.402Z,964.37
2018-02-02T07:28:05.923Z,964.48
2018-02-02T07:29:05.545Z,964.46
2018-02-02T07:30:05.502Z,964.37
2018-02-02T07:31:05.030Z,964.57
2018-02-02T07:32:04.911Z,964.43
2018-02-02T07:33:05.820Z,964.51
2018-02-02T07:34:05.034Z,964.67
2018-02-02T07:35:05.679Z,964.70
2018-02-02T07:36:05.300Z,964.62
2018-02-02T07:37:05.420Z,964.39
2018-02-02T07:38:05.517Z,964.59
2018-02-02T07:39:05.360Z,964.67
2018-02-02T07:40:05.770Z,964.75
2018-02-02T07:41:05.712Z,964.67
2018-02-02T07:42:05.811Z,964.58
2018-02-02T07:43:05.453Z,964.47
2018-02-02T07:44:05.859Z,964.55
2018-02-02T07:45:05.648Z,964.58
2018-02-02T07:46:05.840Z,964.61
2018-02-02T07:47:05.595Z,964.66
2018-02-02T07:48:05.521Z,964.58
2018-02-02T07:49:10.301Z,964.58
2018-02-02T07:50:05.397Z,964.52
2018-02-02T07:51:04.971Z,964.60
2018-02-02T07:52:05.515Z,964.58
2018-02-02T07:53:05.153Z,964.69
2018-02-02T07:54:05.734Z,964.55
2018-02-02T07:55:05.568Z,964.63
2018-02-02T07:56:05.203Z,964.57
2018-02-02T07:57:05.436Z,964.60
2018-02-02T07:58:05.029Z,964.46
2018-02-02T07:59:05.705Z,964.68
2018-02-02T08:00:05.362Z,964.66
2018-02-02T08:01:05.990Z,964.57
2018-02-02T08:02:05.656Z,964.60
2018-02-02T08:03:05.707Z,964.49
2018-02-02T08:04:06.189Z,964.60
2018-02-02T08:05:05.298Z,964.71
2018-02-02T08:06:05.412Z,964.65
2018-02-02T08:07:05.679Z,964.51
2018-02-02T08:08:05.942Z,964.54
2018-02-02T08:09:05.760Z,964.65
2018-02-02T08:10:05.148Z,964.65
2018-02-02T08:11:05.179Z,964.54
2018-02-02T08:12:10.647Z,964.59
2018-02-02T08:13:05.661Z,964.65
2018-02-02T08:14:05.855Z,964.48
2018-02-02T08:15:05.218Z,964.45
2018-02-02T08:16:05.690Z,964.37
2018-02-02T08:17:05.436Z,964.48
2018-02-02T08:18:05.099Z,964.43
2018-02-02T08:19:05.288Z,964.54
2018-02-02T08:20:05.086Z,964.51
2018-02-02T08:21:05.181Z,964.45
2018-02-02T08:22:05.609Z,964.59
2018-02-02T08:23:05.141Z,964.48
2018-02-02T08:24:05.486Z,964.59
2018-02-02T08:25:04.916Z,964.62
2018-02-02T08:26:05.277Z,964.62
2018-02-02T08:27:05.184Z,964.51
2018-02-02T08:28:05.950Z,964.75
2018-02-02T08:29:05.328Z,964.56
2018-02-02T08:30:05.536Z,964.58
2018-02-02T08:31:05.529Z,964.72
2018-02-02T08:32:05.273Z,964.61
2018-02-02T08:33:05.062Z,964.46
2018-02-02T08:34:05.689Z,964.51
2018-02-02T08:35:05.116Z,964.37
2018-02-02T08:36:05.228Z,964.54
2018-02-02T08:37:06.157Z,964.36
2018-02-02T08:38:05.897Z,964.58
2018-02-02T08:39:05.516Z,964.47
2018-02-02T08:40:05.809Z,964.58
2018-02-02T08:41:05.687Z,964.35
2018-02-02T08:42:05.008Z,964.43
2018-02-02T08:43:05.461Z,964.35
2018-02-02T08:44:05.123Z,964.46
2018-02-02T08:45:05.102Z,964.48
2018-02-02T08:46:05.824Z,964.45
2018-02-02T08:47:05.115Z,964.50
2018-02-02T08:48:05.661Z,964.56
2018-02-02T08:49:05.780Z,964.50
2018-02-02T08:50:05.229Z,964.47
2018-02-02T08:51:05.034Z,964.58
2018-02-02T08:52:05.780Z,964.33
2018-02-02T08:53:05.401Z,964.41
2018-02-02T08:54:05.510Z,964.41
2018-02-02T08:55:05.817Z,964.54
2018-02-02T08:56:05.685Z,964.48
2018-02-02T08:57:05.505Z,964.43
2018-02-02T08:58:05.787Z,964.45
2018-02-02T08:59:05.106Z,964.45
2018-02-02T09:00:05.289Z,964.42
2018-02-02T09:01:06.076Z,964.45
2018-02-02T09:02:05.382Z,964.36
2018-02-02T09:03:05.889Z,964.36
2018-02-02T09:04:05.763Z,964.50
2018-02-02T09:05:05.187Z,964.58
2018-02-02T09:06:05.115Z,964.50
2018-02-02T09:07:05.736Z,964.36
2018-02-02T09:08:10.160Z,964.39
2018-02-02T09:09:05.309Z,964.33
2018-02-02T09:10:10.348Z,964.27
2018-02-02T09:11:05.943Z,964.36
2018-02-02T09:12:05.926Z,964.22
2018-02-02T09:13:05.225Z,964.35
2018-02-02T09:14:06.067Z,964.35
2018-02-02T09:15:05.128Z,964.35
2018-02-02T09:16:05.945Z,964.38
2018-02-02T09:17:05.821Z,964.38
2018-02-02T09:18:05.544Z,964.38
2018-02-02T09:19:10.367Z,964.46
2018-02-02T09:20:05.757Z,964.43
2018-02-02T09:21:05.166Z,964.32
2018-02-02T09:22:05.789Z,964.38
2018-02-02T09:23:05.661Z,964.57
2018-02-02T09:24:05.953Z,964.43
2018-02-02T09:25:05.326Z,964.29
2018-02-02T09:26:05.831Z,964.29
2018-02-02T09:27:06.047Z,964.40
2018-02-02T09:28:05.500Z,964.40
2018-02-02T09:29:05.412Z,964.26
2018-02-02T09:30:05.685Z,964.43
2018-02-02T09:31:05.137Z,964.49
2018-02-02T09:32:05.825Z,964.40
2018-02-02T09:33:05.446Z,964.29
2018-02-02T09:34:05.181Z,964.37
2018-02-02T09:35:05.664Z,964.34
2018-02-02T09:36:05.530Z,964.37
2018-02-02T09:37:05.130Z,964.37
2018-02-02T09:38:05.681Z,964.39
2018-02-02T09:39:05.631Z,964.45
2018-02-02T09:40:05.302Z,964.59
2018-02-02T09:41:05.263Z,964.53
2018-02-02T09:42:05.016Z,964.53
2018-02-02T09:43:06.717Z,964.50
2018-02-02T09:44:05.320Z,964.47
2018-02-02T09:45:05.736Z,964.44
2018-02-02T09:46:05.456Z,964.52
2018-02-02T09:47:05.540Z,964.38
2018-02-02T09:48:05.507Z,964.52
2018-02-02T09:49:05.621Z,964.54
2018-02-02T09:50:05.133Z,964.51
2018-02-02T09:51:05.710Z,964.54
2018-02-02T09:52:05.257Z,964.48
2018-02-02T09:53:05.575Z,964.56
2018-02-02T09:54:05.396Z,964.64
2018-02-02T09:55:04.913Z,964.64
2018-02-02T09:56:05.249Z,964.66
2018-02-02T09:57:05.799Z,964.41
2018-02-02T09:58:05.748Z,964.57
2018-02-02T09:59:05.011Z,964.43
2018-02-02T10:00:05.150Z,964.46
2018-02-02T10:01:05.898Z,964.43
2018-02-02T10:02:06.119Z,964.54
2018-02-02T10:03:05.767Z,964.45
2018-02-02T10:04:10.234Z,964.48
2018-02-02T10:05:05.029Z,964.64
2018-02-02T10:06:05.126Z,964.55
2018-02-02T10:07:05.810Z,964.52
2018-02-02T10:08:05.275Z,964.52
2018-02-02T10:09:05.174Z,964.69
2018-02-02T10:10:05.622Z,964.69
2018-02-02T10:11:05.164Z,964.58
2018-02-02T10:12:05.546Z,964.64
2018-02-02T10:13:05.876Z,964.61
2018-02-02T10:14:05.505Z,964.64
2018-02-02T10:15:05.423Z,964.75
2018-02-02T10:16:05.030Z,964.73
2018-02-02T10:17:05.695Z,964.70
2018-02-02T10:18:05.325Z,964.59
2018-02-02T10:19:05.981Z,964.76
2018-02-02T10:20:05.701Z,964.76
2018-02-02T10:21:05.502Z,964.62
2018-02-02T10:22:05.210Z,964.43
2018-02-02T10:23:05.034Z,964.62
2018-02-02T10:24:05.418Z,964.74
2018-02-02T10:25:05.010Z,964.62
2018-02-02T10:26:05.685Z,964.66
2018-02-02T10:27:05.574Z,964.57
2018-02-02T10:28:05.916Z,964.55
2018-02-02T10:29:05.969Z,964.52
2018-02-02T10:30:06.406Z,964.68
2018-02-02T10:31:05.372Z,964.60
2018-02-02T10:32:05.337Z,964.60
2018-02-02T10:33:06.909Z,964.65
2018-02-02T10:34:05.570Z,964.46
2018-02-02T10:35:05.021Z,964.54
2018-02-02T10:36:05.843Z,964.40
2018-02-02T10:37:05.835Z,964.54
2018-02-02T10:38:05.202Z,964.59
2018-02-02T10:39:06.177Z,964.56
2018-02-02T10:40:05.805Z,964.45
2018-02-02T10:41:05.521Z,964.51
2018-02-02T10:42:05.411Z,964.37
2018-02-02T10:43:05.483Z,964.37
2018-02-02T10:44:05.254Z,964.48
2018-02-02T10:45:05.035Z,964.51
2018-02-02T10:46:10.810Z,964.48
2018-02-02T10:47:05.927Z,964.43
2018-02-02T10:48:06.044Z,964.48
2018-02-02T10:49:06.178Z,964.68
2018-02-02T10:50:05.233Z,964.42
2018-02-02T10:51:05.182Z,964.45
2018-02-02T10:52:10.473Z,964.48
2018-02-02T10:53:05.263Z,964.62
2018-02-02T10:54:05.838Z,964.45
2018-02-02T10:55:05.302Z,964.45
2018-02-02T10:56:05.065Z,964.54
2018-02-02T10:57:05.317Z,964.57
2018-02-02T10:58:05.813Z,964.45
2018-02-02T10:59:05.571Z,964.34
2018-02-02T11:00:05.209Z,964.37
2018-02-02T11:01:05.538Z,964.54
2018-02-02T11:02:05.554Z,964.40
2018-02-02T11:03:05.931Z,964.55
2018-02-02T11:04:05.634Z,964.55
2018-02-02T11:05:05.993Z,964.49
2018-02-02T11:06:05.191Z,964.50
2018-02-02T11:07:05.545Z,964.44
2018-02-02T11:08:05.904Z,964.58
2018-02-02T11:09:05.847Z,964.47
2018-02-02T11:10:05.554Z,964.50
2018-02-02T11:11:05.652Z,964.56
2018-02-02T11:12:05.868Z,964.53
2018-02-02T11:13:06.006Z,964.61
2018-02-02T11:14:05.979Z,964.56
2018-02-02T11:15:06.059Z,964.51
2018-02-02T11:16:05.375Z,964.45
2018-02-02T11:17:05.797Z,964.59
2018-02-02T11:18:05.666Z,964.54
2018-02-02T11:19:05.621Z,964.48
2018-02-02T11:20:05.009Z,964.60
2018-02-02T11:21:05.507Z,964.57
2018-02-02T11:22:05.073Z,964.57
2018-02-02T11:23:05.717Z,964.63
2018-02-02T11:24:05.289Z,964.60
2018-02-02T11:25:05.971Z,964.60
2018-02-02T11:26:05.325Z,964.57
2018-02-02T11:27:05.780Z,964.38
2018-02-02T11:28:06.106Z,964.57
2018-02-02T11:29:05.601Z,964.35
2018-02-02T11:30:05.768Z,964.49
2018-02-02T11:31:05.985Z,964.63
2018-02-02T11:32:05.905Z,964.46
2018-02-02T11:33:05.612Z,964.49
2018-02-02T11:34:05.253Z,964.55
2018-02-02T11:35:05.648Z,964.49
2018-02-02T11:36:10.275Z,964.36
2018-02-02T11:37:05.481Z,964.55
2018-02-02T11:38:05.075Z,964.44
2018-02-02T11:39:05.677Z,964.50
2018-02-02T11:40:05.071Z,964.50
2018-02-02T11:41:05.290Z,964.50
2018-02-02T11:42:05.148Z,964.55
2018-02-02T11:43:05.279Z,964.44
2018-02-02T11:44:05.691Z,964.36
2018-02-02T11:45:05.488Z,964.50
2018-02-02T11:46:05.611Z,964.56
2018-02-02T11:47:05.533Z,964.56
2018-02-02T11:48:05.284Z,964.42
2018-02-02T11:49:05.120Z,964.44
2018-02-02T11:50:04.983Z,964.53
2018-02-02T11:51:05.018Z,964.42
2018-02-02T11:52:05.673Z,964.42
2018-02-02T11:53:05.793Z,964.45
2018-02-02T11:54:05.227Z,964.28
2018-02-02T11:55:05.848Z,964.50
2018-02-02T11:56:05.642Z,964.28
2018-02-02T11:57:05.174Z,964.34
2018-02-02T11:58:05.992Z,964.39
2018-02-02T11:59:05.819Z,964.34
2018-02-02T12:00:05.432Z,964.39
2018-02-02T12:01:05.107Z,964.39
2018-02-02T12:02:05.525Z,964.39
2018-02-02T12:03:05.331Z,964.39
2018-02-02T12:04:05.282Z,964.42
2018-02-02T12:05:05.873Z,964.50
2018-02-02T12:06:05.150Z,964.47
2018-02-02T12:07:05.838Z,964.22
2018-02-02T12:08:05.130Z,964.28
2018-02-02T12:09:05.715Z,964.45
2018-02-02T12:10:06.318Z,964.45
2018-02-02T12:11:06.043Z,964.42
2018-02-02T12:12:05.487Z,964.28
2018-02-02T12:13:05.494Z,964.25
2018-02-02T12:14:04.996Z,964.39
2018-02-02T12:15:05.501Z,964.36
2018-02-02T12:16:05.744Z,964.20
2018-02-02T12:17:05.346Z,964.28
2018-02-02T12:18:06.072Z,964.33
2018-02-02T12:19:05.025Z,964.28
2018-02-02T12:20:05.868Z,964.36
2018-02-02T12:21:05.396Z,964.25
2018-02-02T12:22:05.828Z,964.36
2018-02-02T12:23:05.369Z,964.36
2018-02-02T12:24:05.147Z,964.28
2018-02-02T12:25:05.907Z,964.44
2018-02-02T12:26:06.034Z,964.39
2018-02-02T12:27:06.563Z,964.25
2018-02-02T12:28:05.274Z,964.36